Time;durP1;ratioP1;P1;durP2;ratioP2;P2;SDS_P1;SDS_P2;PMS_P1;PMS_P2;Temp;Humidity;BMP_temperature;BMP_pressure;BME280_temperature;BME280_humidity;BME280_pressure;Samples;Min_cycle;Max_cycle;Signal;HPM_P1;HPM_P2
2023/06/08 00:02:23;;;;;;;11.80;5.53;;;14.70;99.90;;;;;;4982302;28;20057;-92
2023/06/08 00:04:49;;;;;;;18.67;5.78;;;14.70;99.90;;;;;;4984025;28;20043;-91
2023/06/08 00:07:16;;;;;;;13.07;5.60;;;14.70;99.90;;;;;;4989179;28;20043;-92
2023/06/08 00:09:45;;;;;;;17.27;6.35;;;14.70;99.90;;;;;;4968353;28;20078;-93
2023/06/08 00:12:12;;;;;;;21.13;5.93;;;14.70;99.90;;;;;;4983176;28;20039;-92
2023/06/08 00:14:38;;;;;;;17.17;6.10;;;14.80;99.90;;;;;;4983136;28;20042;-92
2023/06/08 00:17:05;;;;;;;15.50;5.95;;;14.80;99.90;;;;;;4992301;28;20054;-93
2023/06/08 00:19:32;;;;;;;15.20;6.75;;;14.70;99.90;;;;;;4983961;28;20090;-92
2023/06/08 00:21:59;;;;;;;15.18;6.15;;;14.70;99.90;;;;;;4975570;28;20470;-93
2023/06/08 00:24:25;;;;;;;15.82;6.80;;;14.60;99.90;;;;;;4979314;28;20050;-92
2023/06/08 00:26:51;;;;;;;15.07;6.85;;;14.70;99.90;;;;;;4984308;28;20125;-92
2023/06/08 00:29:17;;;;;;;13.52;6.68;;;14.70;99.90;;;;;;4969239;28;20046;-92
2023/06/08 00:31:43;;;;;;;14.55;6.78;;;14.70;99.90;;;;;;4976611;28;20048;-92
2023/06/08 00:34:08;;;;;;;17.73;7.05;;;14.70;99.90;;;;;;4977044;28;20102;-94
2023/06/08 00:36:34;;;;;;;19.38;7.78;;;14.70;99.90;;;;;;4985749;28;20047;-93
2023/06/08 00:38:59;;;;;;;15.93;6.45;;;14.50;99.90;;;;;;4971733;28;20109;-93
2023/06/08 00:41:25;;;;;;;16.33;6.70;;;14.60;99.90;;;;;;4968701;28;20060;-92
2023/06/08 00:43:51;;;;;;;10.23;6.15;;;14.60;99.90;;;;;;4989869;28;20035;-94
2023/06/08 00:46:18;;;;;;;14.32;7.35;;;14.60;99.90;;;;;;4991885;28;20493;-93
2023/06/08 00:48:44;;;;;;;13.15;6.78;;;14.60;99.90;;;;;;4985876;28;20469;-93
2023/06/08 00:51:11;;;;;;;15.05;7.07;;;14.50;99.90;;;;;;4988459;28;20074;-92
2023/06/08 00:53:37;;;;;;;16.52;6.60;;;14.50;99.90;;;;;;4962146;28;20043;-92
2023/06/08 00:56:05;;;;;;;13.90;6.85;;;14.50;99.90;;;;;;4981953;28;20038;-92
2023/06/08 00:58:33;;;;;;;16.00;6.55;;;14.50;99.90;;;;;;4983097;28;20042;-91
2023/06/08 01:01:01;;;;;;;15.27;6.93;;;14.50;99.90;;;;;;4976939;28;20061;-92
2023/06/08 01:03:35;;;;;;;17.60;8.15;;;14.50;99.90;;;;;;4986056;28;20038;-92
2023/06/08 01:06:08;;;;;;;18.00;6.93;;;14.50;99.90;;;;;;4989176;28;20042;-92
2023/06/08 01:08:54;;;;;;;15.43;7.85;;;14.40;99.90;;;;;;4983964;28;20073;-91
2023/06/08 01:11:26;;;;;;;17.33;7.88;;;14.40;99.90;;;;;;4986460;28;20042;-93
2023/06/08 01:14:13;;;;;;;17.38;7.20;;;14.40;99.90;;;;;;4982681;28;20154;-92
2023/06/08 01:16:44;;;;;;;17.02;7.13;;;14.40;99.90;;;;;;4968159;28;20042;-91
2023/06/08 01:19:17;;;;;;;15.95;7.18;;;14.40;99.90;;;;;;4988264;28;20030;-93
2023/06/08 01:22:33;;;;;;;13.77;7.55;;;14.40;99.90;;;;;;4980126;28;20510;-92
2023/06/08 01:25:00;;;;;;;16.52;8.75;;;14.40;99.90;;;;;;4935663;29;20051;-92
2023/06/08 01:27:28;;;;;;;18.35;8.07;;;14.40;99.90;;;;;;4943177;29;20082;-92
2023/06/08 01:29:54;;;;;;;18.10;7.57;;;14.40;99.90;;;;;;4939202;29;20156;-93
2023/06/08 01:32:20;;;;;;;16.98;8.00;;;14.40;99.90;;;;;;4936547;28;20047;-92
2023/06/08 01:34:46;;;;;;;15.82;8.27;;;14.30;99.90;;;;;;4943364;29;20035;-92
2023/06/08 01:37:17;;;;;;;16.67;7.70;;;14.30;99.90;;;;;;4943599;29;20066;-93
2023/06/08 01:39:55;;;;;;;16.35;6.78;;;14.20;99.90;;;;;;4940528;29;20047;-92
2023/06/08 01:42:24;;;;;;;13.13;6.53;;;14.20;99.90;;;;;;4945047;29;20054;-93
2023/06/08 01:44:58;;;;;;;17.70;6.88;;;14.20;99.90;;;;;;4936719;29;20043;-92
2023/06/08 01:47:38;;;;;;;12.25;5.97;;;14.30;99.90;;;;;;4928876;29;20056;-92
2023/06/08 01:50:06;;;;;;;15.02;6.45;;;14.20;99.90;;;;;;4931628;29;20055;-92
2023/06/08 01:52:32;;;;;;;16.48;6.45;;;14.20;99.90;;;;;;4931189;29;20118;-92
2023/06/08 01:54:58;;;;;;;11.57;6.05;;;14.20;99.90;;;;;;4941954;28;20082;-91
2023/06/08 01:57:23;;;;;;;14.55;6.93;;;14.20;99.90;;;;;;4985221;28;20065;-94
2023/06/08 01:59:49;;;;;;;14.70;5.38;;;14.30;99.90;;;;;;4987174;28;20051;-93
2023/06/08 02:02:15;;;;;;;12.93;6.45;;;14.10;99.90;;;;;;4975847;28;20042;-93
2023/06/08 02:04:41;;;;;;;13.60;6.38;;;14.30;99.90;;;;;;4975586;28;20057;-92
2023/06/08 02:07:07;;;;;;;14.32;6.32;;;14.20;99.90;;;;;;4988864;28;20047;-92
2023/06/08 02:09:32;;;;;;;15.80;6.53;;;14.20;99.90;;;;;;4981778;28;20093;-92
2023/06/08 02:12:08;;;;;;;14.85;6.75;;;14.20;99.90;;;;;;4993361;28;20057;-93
2023/06/08 02:14:34;;;;;;;16.63;6.70;;;14.20;99.90;;;;;;4987401;28;20039;-91
2023/06/08 02:17:03;;;;;;;14.30;6.95;;;14.20;99.90;;;;;;4983436;28;20046;-93
2023/06/08 02:19:31;;;;;;;18.98;7.45;;;14.20;99.90;;;;;;4986562;28;20505;-92
2023/06/08 02:21:58;;;;;;;16.85;8.20;;;14.10;99.90;;;;;;4974469;28;20050;-92
2023/06/08 02:24:24;;;;;;;16.88;6.03;;;14.10;99.90;;;;;;4957890;28;20494;-92
2023/06/08 02:26:52;;;;;;;16.58;7.47;;;14.00;99.90;;;;;;4982164;28;20105;-92
2023/06/08 02:29:21;;;;;;;14.48;7.07;;;14.10;99.90;;;;;;4988791;28;20050;-92
2023/06/08 02:31:47;;;;;;;15.25;7.72;;;14.10;99.90;;;;;;4976110;28;20062;-93
2023/06/08 02:34:12;;;;;;;18.13;8.65;;;14.10;99.90;;;;;;4975631;28;20038;-93
2023/06/08 02:36:39;;;;;;;18.38;8.40;;;14.10;99.90;;;;;;4980626;28;20031;-92
2023/06/08 02:39:05;;;;;;;16.55;8.05;;;14.00;99.90;;;;;;4982401;28;20562;-92
2023/06/08 02:41:31;;;;;;;16.52;7.53;;;14.10;99.90;;;;;;4986666;28;20068;-92
2023/06/08 02:43:56;;;;;;;16.42;7.55;;;14.00;99.90;;;;;;4982568;28;20038;-92
2023/06/08 02:46:22;;;;;;;18.30;7.68;;;14.00;99.90;;;;;;4990344;28;20034;-93
2023/06/08 02:48:49;;;;;;;17.02;6.25;;;14.00;99.90;;;;;;4992384;28;20093;-91
2023/06/08 02:51:16;;;;;;;19.05;8.30;;;14.00;99.90;;;;;;4983767;28;20042;-92
2023/06/08 02:53:42;;;;;;;15.65;7.40;;;14.00;99.90;;;;;;4968853;28;20125;-92
2023/06/08 02:56:07;;;;;;;14.15;7.65;;;13.90;99.90;;;;;;4973915;28;20085;-92
2023/06/08 02:58:33;;;;;;;17.80;8.85;;;14.10;99.90;;;;;;4965281;28;20039;-93
2023/06/08 03:01:00;;;;;;;20.85;9.25;;;14.00;99.90;;;;;;4972479;28;20489;-92
2023/06/08 03:03:29;;;;;;;14.15;7.50;;;14.00;99.90;;;;;;4965841;28;20071;-92
2023/06/08 03:05:59;;;;;;;17.95;8.88;;;14.00;99.90;;;;;;4967222;28;20089;-93
2023/06/08 03:08:28;;;;;;;18.80;8.77;;;14.00;99.90;;;;;;4990558;28;20113;-92
2023/06/08 03:10:54;;;;;;;21.98;9.20;;;14.00;99.90;;;;;;4986640;28;20094;-93
2023/06/08 03:13:21;;;;;;;12.77;6.22;;;13.90;99.90;;;;;;4992605;28;20034;-92
2023/06/08 03:15:47;;;;;;;20.17;8.70;;;13.90;99.90;;;;;;4988004;28;20038;-92
2023/06/08 03:18:13;;;;;;;18.20;7.88;;;13.90;99.90;;;;;;4984368;28;20061;-92
2023/06/08 03:20:40;;;;;;;16.73;7.38;;;13.90;99.90;;;;;;4990316;28;20121;-92
2023/06/08 03:23:07;;;;;;;20.00;8.95;;;13.90;99.90;;;;;;4955230;28;20043;-92
2023/06/08 03:25:36;;;;;;;15.68;7.40;;;13.90;99.90;;;;;;4987469;28;20049;-92
2023/06/08 03:28:02;;;;;;;17.30;8.80;;;13.90;99.90;;;;;;4982365;28;20047;-92
2023/06/08 03:30:28;;;;;;;19.42;9.18;;;13.90;99.90;;;;;;4984063;28;20041;-92
2023/06/08 03:32:54;;;;;;;16.83;8.93;;;13.90;99.90;;;;;;4968250;28;20110;-93
2023/06/08 03:35:20;;;;;;;16.15;7.97;;;13.80;99.90;;;;;;4978403;28;20038;-93
2023/06/08 03:37:46;;;;;;;18.48;9.07;;;13.90;99.90;;;;;;4982937;28;20038;-92
2023/06/08 03:40:12;;;;;;;17.38;8.85;;;13.90;99.90;;;;;;4978960;28;20042;-92
2023/06/08 03:42:38;;;;;;;10.10;5.68;;;13.80;99.90;;;;;;4996020;28;20185;-93
2023/06/08 03:45:04;;;;;;;16.80;8.10;;;13.80;99.90;;;;;;4993188;28;20034;-93
2023/06/08 03:47:31;;;;;;;17.10;8.07;;;13.80;99.90;;;;;;4974584;28;20053;-93
2023/06/08 03:49:57;;;;;;;18.27;9.13;;;13.80;99.90;;;;;;4980320;28;20050;-91
2023/06/08 03:52:23;;;;;;;20.05;7.82;;;13.70;99.90;;;;;;4978937;28;20039;-93
2023/06/08 03:54:49;;;;;;;24.33;9.38;;;13.70;99.90;;;;;;4990831;28;20046;-92
2023/06/08 03:57:15;;;;;;;19.30;8.05;;;13.80;99.90;;;;;;4986807;28;20113;-93
2023/06/08 03:59:41;;;;;;;19.02;7.70;;;13.80;99.90;;;;;;4994116;28;20170;-93
2023/06/08 04:02:07;;;;;;;15.98;7.75;;;13.70;99.90;;;;;;4982275;28;20058;-93
2023/06/08 04:04:34;;;;;;;16.45;8.15;;;13.70;99.90;;;;;;4973012;28;20046;-92
2023/06/08 04:07:00;;;;;;;12.93;7.13;;;13.80;99.90;;;;;;4961478;28;20034;-92
2023/06/08 04:09:30;;;;;;;21.92;8.82;;;13.70;99.90;;;;;;4988478;28;20041;-93
2023/06/08 04:11:57;;;;;;;16.15;7.10;;;13.70;99.90;;;;;;4986619;28;20047;-92
2023/06/08 04:14:23;;;;;;;18.00;9.05;;;13.70;99.90;;;;;;4961283;28;20094;-92
2023/06/08 04:16:49;;;;;;;18.70;8.32;;;13.70;99.90;;;;;;4945386;28;20046;-92
2023/06/08 04:19:14;;;;;;;15.82;7.47;;;13.70;99.90;;;;;;4969080;28;20505;-92
2023/06/08 04:21:40;;;;;;;14.82;6.78;;;13.70;99.90;;;;;;4970516;28;20038;-92
2023/06/08 04:24:06;;;;;;;13.07;7.20;;;13.70;99.90;;;;;;4979001;28;20123;-93
2023/06/08 04:26:32;;;;;;;15.82;7.35;;;13.70;99.90;;;;;;4979395;28;20038;-93
2023/06/08 04:28:58;;;;;;;17.92;7.47;;;13.70;99.90;;;;;;4989753;28;20038;-93
2023/06/08 04:31:24;;;;;;;12.85;7.63;;;13.80;99.90;;;;;;4993612;28;20046;-93
2023/06/08 04:33:52;;;;;;;12.50;7.53;;;13.70;99.90;;;;;;4989039;28;20068;-93
2023/06/08 04:36:18;;;;;;;19.27;8.20;;;13.70;99.90;;;;;;5004079;28;20018;-92
2023/06/08 04:38:43;;;;;;;16.38;7.63;;;13.70;99.90;;;;;;5005444;28;20069;-92
2023/06/08 04:41:11;;;;;;;12.88;6.55;;;13.70;99.90;;;;;;4984577;28;20042;-93
2023/06/08 04:43:37;;;;;;;20.05;8.65;;;13.60;99.90;;;;;;4992671;28;20039;-92
2023/06/08 04:46:04;;;;;;;19.92;8.55;;;13.70;99.90;;;;;;5004080;28;20039;-93
2023/06/08 04:48:33;;;;;;;13.73;7.13;;;13.70;99.90;;;;;;4986266;28;20047;-93
2023/06/08 04:51:01;;;;;;;17.02;7.72;;;13.70;99.90;;;;;;4961375;28;20073;-92
2023/06/08 04:53:33;;;;;;;23.75;8.85;;;13.70;99.90;;;;;;4978260;28;20049;-93
2023/06/08 04:56:02;;;;;;;18.50;8.43;;;13.70;99.90;;;;;;4987180;28;20577;-93
2023/06/08 04:58:29;;;;;;;19.02;8.73;;;13.70;99.90;;;;;;4981040;28;20042;-93
2023/06/08 05:00:56;;;;;;;15.98;7.43;;;13.70;99.90;;;;;;4977029;28;20509;-92
2023/06/08 05:03:23;;;;;;;13.80;7.05;;;13.80;99.90;;;;;;4978959;28;20065;-93
2023/06/08 05:05:50;;;;;;;12.55;6.90;;;13.80;99.90;;;;;;4980624;28;20034;-91
2023/06/08 05:08:15;;;;;;;14.73;7.47;;;13.90;99.90;;;;;;4961311;28;20139;-91
2023/06/08 05:10:41;;;;;;;20.58;8.05;;;13.90;99.90;;;;;;4976418;28;20066;-93
2023/06/08 05:13:07;;;;;;;15.75;7.03;;;14.00;99.90;;;;;;4983274;28;20035;-93
2023/06/08 05:15:32;;;;;;;15.70;7.57;;;14.00;99.90;;;;;;4980567;28;20042;-91
2023/06/08 05:17:58;;;;;;;16.42;7.78;;;14.00;99.90;;;;;;4958725;28;20043;-92
2023/06/08 05:20:26;;;;;;;18.08;7.32;;;14.00;99.90;;;;;;4962356;28;20041;-91
2023/06/08 05:22:53;;;;;;;16.17;7.65;;;14.00;99.90;;;;;;4989022;28;20043;-92
2023/06/08 05:25:19;;;;;;;21.13;8.57;;;14.10;99.90;;;;;;4992188;28;20042;-89
2023/06/08 05:27:45;;;;;;;14.75;6.15;;;14.10;99.90;;;;;;4974120;28;20065;-92
2023/06/08 05:30:11;;;;;;;15.57;6.30;;;14.10;99.90;;;;;;4986872;28;20038;-92
2023/06/08 05:32:37;;;;;;;17.85;8.43;;;14.20;99.90;;;;;;4968792;28;20061;-87
2023/06/08 05:35:03;;;;;;;14.95;6.43;;;14.20;99.90;;;;;;4968695;28;20133;-89
2023/06/08 05:37:29;;;;;;;15.75;6.35;;;14.20;99.90;;;;;;4987775;28;20119;-88
2023/06/08 05:39:56;;;;;;;14.57;6.25;;;14.20;99.90;;;;;;4981846;28;20113;-89
2023/06/08 05:42:21;;;;;;;12.90;6.38;;;14.20;99.90;;;;;;4969303;28;20482;-90
2023/06/08 05:44:47;;;;;;;17.73;7.03;;;14.20;99.90;;;;;;4975258;28;20152;-89
2023/06/08 05:47:13;;;;;;;18.38;6.25;;;14.20;99.90;;;;;;4977082;28;20452;-91
2023/06/08 05:49:38;;;;;;;19.00;7.82;;;14.20;99.90;;;;;;4962653;28;20053;-90
2023/06/08 05:52:04;;;;;;;17.02;6.55;;;14.20;99.90;;;;;;4979655;28;20042;-90
2023/06/08 05:54:30;;;;;;;13.20;5.95;;;14.30;99.90;;;;;;4972505;28;20067;-91
2023/06/08 05:56:56;;;;;;;13.13;5.97;;;14.30;99.90;;;;;;4975446;28;20042;-91
2023/06/08 05:59:22;;;;;;;13.00;5.43;;;14.40;99.90;;;;;;4976467;28;20054;-93
2023/06/08 06:01:49;;;;;;;15.50;6.03;;;14.40;99.90;;;;;;4987290;28;20341;-90
2023/06/08 06:04:14;;;;;;;16.58;5.75;;;14.60;99.90;;;;;;4987273;28;20496;-93
2023/06/08 06:06:40;;;;;;;11.43;5.80;;;14.40;99.90;;;;;;4968357;28;20493;-90
2023/06/08 06:09:06;;;;;;;11.43;6.10;;;14.40;99.90;;;;;;4982994;28;20043;-90
2023/06/08 06:11:32;;;;;;;13.70;6.28;;;14.50;99.90;;;;;;4952356;28;20042;-90
2023/06/08 06:14:00;;;;;;;16.50;6.05;;;14.50;99.90;;;;;;4982400;28;20447;-88
2023/06/08 06:16:26;;;;;;;14.00;5.70;;;14.50;99.90;;;;;;4981122;28;20043;-86
2023/06/08 06:18:52;;;;;;;13.82;6.20;;;14.60;99.90;;;;;;4984333;28;20042;-86
2023/06/08 06:21:17;;;;;;;11.27;5.40;;;14.60;99.90;;;;;;4983538;28;20105;-88
2023/06/08 06:23:46;;;;;;;12.82;6.03;;;14.60;99.90;;;;;;4960755;28;20070;-86
2023/06/08 06:26:12;;;;;;;14.43;5.40;;;14.60;99.90;;;;;;4955943;28;20038;-87
2023/06/08 06:28:38;;;;;;;15.85;5.47;;;14.70;99.90;;;;;;4994994;28;20532;-87
2023/06/08 06:31:05;;;;;;;13.68;4.88;;;14.70;99.90;;;;;;4985729;28;20038;-88
2023/06/08 06:33:31;;;;;;;12.80;4.93;;;14.60;99.90;;;;;;4979089;28;20031;-91
2023/06/08 06:35:57;;;;;;;14.38;6.28;;;14.60;99.90;;;;;;4989754;28;20031;-94
2023/06/08 06:38:22;;;;;;;11.48;5.32;;;14.70;99.90;;;;;;4983561;28;20030;-89
2023/06/08 06:40:52;;;;;;;12.82;5.32;;;14.70;99.90;;;;;;4985277;28;20030;-91
2023/06/08 06:43:21;;;;;;;12.10;5.60;;;14.80;99.90;;;;;;4986023;28;20503;-90
2023/06/08 06:45:50;;;;;;;12.50;5.65;;;14.80;99.90;;;;;;4986470;28;20057;-91
2023/06/08 06:48:20;;;;;;;12.77;4.97;;;14.70;99.90;;;;;;4970897;28;20039;-91
2023/06/08 06:50:47;;;;;;;12.60;5.20;;;14.70;99.90;;;;;;4980692;28;20039;-91
2023/06/08 06:53:12;;;;;;;15.50;5.68;;;14.70;99.90;;;;;;4996155;28;20070;-90
2023/06/08 06:55:38;;;;;;;10.38;4.82;;;14.70;99.90;;;;;;4988060;28;20113;-90
2023/06/08 06:58:04;;;;;;;12.48;4.60;;;14.60;99.90;;;;;;4987037;28;20035;-91
2023/06/08 07:00:37;;;;;;;13.52;5.03;;;14.70;99.90;;;;;;4988999;28;20050;-92
2023/06/08 07:03:07;;;;;;;13.90;5.88;;;14.70;99.90;;;;;;4995847;28;20110;-92
2023/06/08 07:05:38;;;;;;;14.55;5.03;;;14.80;99.90;;;;;;4988431;28;20038;-90
2023/06/08 07:08:04;;;;;;;14.00;5.13;;;14.90;99.90;;;;;;4988713;28;20046;-90
2023/06/08 07:10:30;;;;;;;16.00;5.80;;;15.00;99.90;;;;;;4994870;28;20042;-90
2023/06/08 07:12:56;;;;;;;13.27;5.05;;;15.10;99.90;;;;;;4988129;28;20053;-92
2023/06/08 07:15:22;;;;;;;17.13;5.40;;;15.30;99.90;;;;;;4977802;28;20051;-90
2023/06/08 07:17:48;;;;;;;20.45;5.13;;;15.60;99.90;;;;;;4966617;28;20460;-90
2023/06/08 07:20:14;;;;;;;13.48;4.72;;;15.90;99.90;;;;;;4981968;28;20023;-91
2023/06/08 07:22:40;;;;;;;15.38;4.80;;;16.20;99.90;;;;;;4957644;28;20041;-91
2023/06/08 07:25:06;;;;;;;11.20;4.28;;;16.40;99.90;;;;;;4971384;28;20528;-90
2023/06/08 07:27:32;;;;;;;12.50;4.32;;;16.70;99.90;;;;;;4988246;28;20053;-91
2023/06/08 07:29:58;;;;;;;9.07;4.07;;;16.90;99.90;;;;;;4982420;28;20046;-90
2023/06/08 07:32:26;;;;;;;13.05;4.97;;;17.10;99.90;;;;;;4977970;28;20053;-90
2023/06/08 07:34:52;;;;;;;15.32;4.18;;;17.30;99.90;;;;;;4959562;28;20085;-90
2023/06/08 07:37:18;;;;;;;14.57;4.28;;;17.50;99.90;;;;;;4968633;28;20047;-90
2023/06/08 07:39:43;;;;;;;11.68;4.50;;;17.60;99.90;;;;;;4970653;28;20406;-91
2023/06/08 07:42:09;;;;;;;11.90;4.38;;;17.80;99.90;;;;;;4978365;28;20038;-93
2023/06/08 07:44:35;;;;;;;10.30;4.07;;;17.90;99.90;;;;;;4992615;28;20042;-92
2023/06/08 07:47:01;;;;;;;11.90;4.15;;;18.10;99.90;;;;;;4961640;28;20042;-92
2023/06/08 07:49:28;;;;;;;13.43;4.28;;;18.20;99.90;;;;;;4961429;28;20047;-92
2023/06/08 07:51:54;;;;;;;8.48;3.88;;;18.20;99.90;;;;;;4981878;28;20031;-92
2023/06/08 07:54:20;;;;;;;12.27;4.30;;;18.30;99.90;;;;;;4965031;28;20041;-92
2023/06/08 07:56:46;;;;;;;13.05;4.60;;;18.40;99.90;;;;;;4990405;28;20063;-91
2023/06/08 07:59:12;;;;;;;10.40;5.07;;;18.50;99.90;;;;;;4984355;28;20058;-92
2023/06/08 08:01:38;;;;;;;12.38;4.38;;;18.50;99.90;;;;;;4986420;28;20050;-92
2023/06/08 08:04:03;;;;;;;14.75;4.50;;;18.50;99.90;;;;;;4979789;28;20035;-91
2023/06/08 08:06:29;;;;;;;12.43;4.32;;;18.60;99.90;;;;;;4984724;28;20070;-92
2023/06/08 08:08:55;;;;;;;11.98;4.15;;;18.40;99.90;;;;;;4974524;28;20042;-92
2023/06/08 08:11:21;;;;;;;9.98;4.15;;;18.50;99.90;;;;;;4978468;28;20030;-92
2023/06/08 08:13:46;;;;;;;13.10;4.93;;;18.60;99.90;;;;;;4985452;28;20034;-92
2023/06/08 08:16:12;;;;;;;10.82;4.63;;;18.70;99.90;;;;;;4990437;28;20050;-92
2023/06/08 08:18:38;;;;;;;13.02;3.95;;;18.70;99.90;;;;;;4980661;28;20493;-92
2023/06/08 08:21:03;;;;;;;13.18;4.75;;;18.70;99.90;;;;;;4988022;28;20389;-93
2023/06/08 08:23:29;;;;;;;10.77;4.35;;;18.80;99.90;;;;;;4982351;28;20473;-92
2023/06/08 08:25:55;;;;;;;13.13;4.85;;;18.80;99.90;;;;;;4994297;28;20077;-92
2023/06/08 08:28:20;;;;;;;13.05;4.13;;;18.90;99.90;;;;;;4964635;28;20087;-92
2023/06/08 08:30:46;;;;;;;11.65;4.22;;;18.90;99.90;;;;;;4981456;28;20043;-92
2023/06/08 08:33:13;;;;;;;12.80;4.40;;;18.90;99.90;;;;;;4988266;28;20108;-93
2023/06/08 08:35:38;;;;;;;12.15;4.28;;;18.90;99.90;;;;;;4984085;28;20047;-93
2023/06/08 08:38:04;;;;;;;15.38;4.60;;;18.90;99.90;;;;;;4987474;28;20087;-94
2023/06/08 08:40:29;;;;;;;11.13;4.07;;;19.00;99.90;;;;;;4982606;28;20049;-93
2023/06/08 08:43:26;;;;;;;16.50;4.80;;;18.90;99.90;;;;;;4987820;28;20042;-92
2023/06/08 08:45:52;;;;;;;13.98;4.53;;;19.00;99.90;;;;;;4978452;28;20125;-93
2023/06/08 08:48:21;;;;;;;12.82;4.30;;;19.00;99.90;;;;;;4964181;28;20053;-93
2023/06/08 08:50:53;;;;;;;14.38;4.78;;;18.90;99.90;;;;;;4986791;28;20116;-92
2023/06/08 08:53:27;;;;;;;13.77;4.25;;;19.10;99.90;;;;;;4988540;28;20101;-93
2023/06/08 08:55:54;;;;;;;14.80;5.25;;;19.10;99.90;;;;;;4989646;28;20366;-92
2023/06/08 08:58:21;;;;;;;11.20;4.75;;;19.20;99.90;;;;;;4965208;28;20053;-94
2023/06/08 09:00:50;;;;;;;12.52;4.07;;;19.30;99.90;;;;;;4963149;28;20062;-93
2023/06/08 09:03:16;;;;;;;10.15;4.75;;;19.40;99.90;;;;;;4985139;28;20070;-93
2023/06/08 09:05:45;;;;;;;11.85;4.57;;;19.50;99.90;;;;;;4987197;28;20045;-94
2023/06/08 09:08:11;;;;;;;9.25;4.28;;;19.60;99.90;;;;;;4982566;28;20034;-92
2023/06/08 09:10:37;;;;;;;11.73;4.50;;;19.60;99.90;;;;;;4986633;28;20051;-93
2023/06/08 09:13:03;;;;;;;11.30;4.30;;;19.70;99.90;;;;;;4980756;28;20401;-93
2023/06/08 09:15:34;;;;;;;13.27;4.15;;;19.80;99.90;;;;;;4959623;28;20073;-93
2023/06/08 09:18:13;;;;;;;11.70;4.60;;;19.90;99.90;;;;;;4982990;28;20054;-94
2023/06/08 09:20:40;;;;;;;13.13;4.57;;;20.00;99.90;;;;;;4976400;28;20078;-94
2023/06/08 09:23:26;;;;;;;11.65;4.00;;;20.00;99.90;;;;;;4982383;28;20047;-95
2023/06/08 09:25:53;;;;;;;8.63;3.88;;;20.10;99.90;;;;;;4980848;28;20041;-92
2023/06/08 09:28:28;;;;;;;14.98;3.95;;;20.20;99.90;;;;;;4965982;28;20094;-89
2023/06/08 09:30:56;;;;;;;9.40;4.38;;;20.30;99.90;;;;;;4988419;28;20034;-96
2023/06/08 09:33:32;;;;;;;11.63;4.40;;;20.40;99.90;;;;;;4964673;28;20048;-95
2023/06/08 09:35:58;;;;;;;16.92;4.72;;;20.50;99.90;;;;;;4982187;28;20115;-95
2023/06/08 09:38:28;;;;;;;15.65;4.72;;;20.50;99.90;;;;;;4960449;28;20055;-96
2023/06/08 09:41:12;;;;;;;13.48;4.80;;;20.50;99.90;;;;;;4986839;28;20053;-96
2023/06/08 09:43:38;;;;;;;16.67;4.45;;;20.60;99.90;;;;;;4985137;28;20049;-94
2023/06/08 09:46:03;;;;;;;13.20;4.57;;;20.60;99.90;;;;;;4985369;28;20038;-95
2023/06/08 09:48:29;;;;;;;10.35;4.00;;;20.70;99.90;;;;;;4968687;28;20040;-95
2023/06/08 09:51:02;;;;;;;10.55;3.50;;;20.80;99.90;;;;;;4996893;28;20058;-96
2023/06/08 09:53:31;;;;;;;10.70;4.00;;;20.90;99.90;;;;;;4988368;28;20046;-96
2023/06/08 09:55:58;;;;;;;10.82;4.22;;;21.00;99.90;;;;;;4977335;28;20066;-95
2023/06/08 09:58:28;;;;;;;13.52;3.80;;;21.00;99.90;;;;;;4972360;28;20106;-96
2023/06/08 10:01:02;;;;;;;10.80;4.07;;;21.10;99.90;;;;;;4967416;28;20046;-95
2023/06/08 10:03:39;;;;;;;11.43;3.92;;;21.20;99.90;;;;;;4981103;28;20039;-95
2023/06/08 10:06:09;;;;;;;11.38;4.13;;;21.30;99.90;;;;;;4968353;28;20037;-96
2023/06/08 10:08:37;;;;;;;10.88;4.30;;;21.40;99.90;;;;;;4957591;28;20042;-96
2023/06/08 10:11:04;;;;;;;10.38;3.83;;;21.50;99.90;;;;;;4959473;28;20046;-95
2023/06/08 10:13:31;;;;;;;8.93;3.78;;;21.60;99.90;;;;;;4942391;28;20050;-96
2023/06/08 10:15:56;;;;;;;13.23;4.55;;;21.50;99.90;;;;;;4975503;28;20050;-96
2023/06/08 10:18:23;;;;;;;14.48;3.58;;;21.80;99.90;;;;;;4956731;28;20039;-96
2023/06/08 10:20:49;;;;;;;12.80;4.63;;;21.80;99.90;;;;;;4981203;28;20104;-96
2023/06/08 10:23:15;;;;;;;10.95;3.70;;;21.90;99.90;;;;;;4973837;28;20086;-96
2023/06/08 10:25:41;;;;;;;10.75;3.90;;;21.90;99.90;;;;;;4964435;28;20309;-95
2023/06/08 10:28:14;;;;;;;9.02;3.72;;;22.00;99.90;;;;;;4968843;28;20022;-95
2023/06/08 10:30:42;;;;;;;13.35;3.83;;;22.00;99.90;;;;;;4995697;28;20045;-96
2023/06/08 10:33:20;;;;;;;12.90;3.38;;;22.10;99.90;;;;;;4978214;28;20396;-96
2023/06/08 10:36:09;;;;;;;11.98;3.97;;;22.20;99.90;;;;;;5014375;23;20047;-93
2023/06/08 10:39:07;;;;;;;8.65;3.65;;;22.20;99.90;;;;;;4981885;28;20058;-95
2023/06/08 10:41:56;;;;;;;10.35;4.00;;;22.20;99.90;;;;;;4973681;28;20046;-96
2023/06/08 10:44:33;;;;;;;12.15;4.22;;;22.30;99.90;;;;;;4993742;28;20054;-96
2023/06/08 10:47:03;;;;;;;10.27;4.32;;;22.40;99.90;;;;;;4988392;28;20042;-96
2023/06/08 10:49:35;;;;;;;14.13;3.83;;;22.40;99.90;;;;;;5014579;28;20034;-96
2023/06/08 10:52:03;;;;;;;13.23;4.03;;;22.40;99.90;;;;;;4996907;28;20061;-96
2023/06/08 10:54:29;;;;;;;16.17;5.05;;;22.60;99.90;;;;;;5017759;28;20041;-95
2023/06/08 10:56:58;;;;;;;12.55;3.80;;;22.60;99.90;;;;;;5011594;28;20077;-96
2023/06/08 10:59:37;;;;;;;10.00;3.67;;;22.70;99.90;;;;;;5010984;28;20045;-96
2023/06/08 11:02:06;;;;;;;14.18;4.15;;;22.80;99.90;;;;;;5012050;28;20496;-94
2023/06/08 11:04:33;;;;;;;12.18;4.28;;;22.90;99.90;;;;;;5002743;23;20106;-91
2023/06/08 11:07:06;;;;;;;13.80;4.05;;;23.00;99.90;;;;;;4977118;28;20034;-91
2023/06/08 11:09:34;;;;;;;12.15;4.35;;;23.00;99.90;;;;;;4973745;28;20050;-91
2023/06/08 11:12:00;;;;;;;9.95;4.32;;;23.00;99.90;;;;;;4969918;28;20126;-91
2023/06/08 11:14:27;;;;;;;14.07;4.18;;;23.10;99.90;;;;;;4994485;28;20042;-91
2023/06/08 11:16:54;;;;;;;8.98;3.63;;;23.10;99.90;;;;;;4988491;28;20047;-91
2023/06/08 11:19:27;;;;;;;12.60;4.32;;;23.20;99.90;;;;;;4968173;28;20039;-91
2023/06/08 11:21:53;;;;;;;12.55;4.40;;;23.20;99.90;;;;;;4989353;28;20053;-91
2023/06/08 11:24:25;;;;;;;9.50;3.60;;;23.30;99.90;;;;;;4993486;28;20034;-90
2023/06/08 11:27:01;;;;;;;8.50;3.92;;;23.30;99.90;;;;;;4973651;28;20148;-92
2023/06/08 11:29:27;;;;;;;13.30;4.05;;;23.30;99.90;;;;;;4993714;28;20042;-91
2023/06/08 11:31:54;;;;;;;14.48;4.50;;;23.40;99.90;;;;;;4976701;28;20038;-92
2023/06/08 11:34:21;;;;;;;9.95;3.70;;;23.40;99.90;;;;;;4994516;28;20486;-91
2023/06/08 11:36:48;;;;;;;11.38;4.18;;;23.40;99.90;;;;;;4994346;28;20043;-91
2023/06/08 11:39:14;;;;;;;11.27;3.78;;;23.40;99.90;;;;;;4992802;28;20489;-91
2023/06/08 11:41:46;;;;;;;13.75;4.47;;;23.40;99.90;;;;;;4975049;28;20049;-91
2023/06/08 11:44:13;;;;;;;12.05;4.07;;;23.50;99.90;;;;;;4994793;28;20110;-91
2023/06/08 11:46:39;;;;;;;8.65;4.10;;;23.60;99.90;;;;;;4967613;28;20489;-92
2023/06/08 11:49:11;;;;;;;9.68;3.92;;;23.70;99.90;;;;;;4984100;28;20042;-92
2023/06/08 11:51:48;;;;;;;14.02;3.35;;;23.80;99.90;;;;;;4976690;28;20039;-91
2023/06/08 11:54:15;;;;;;;10.75;4.13;;;23.90;99.90;;;;;;4977846;28;20532;-92
2023/06/08 11:56:45;;;;;;;11.10;3.65;;;23.90;99.60;;;;;;4963844;28;20043;-91
2023/06/08 11:59:12;;;;;;;10.73;4.00;;;23.90;99.90;;;;;;4997715;28;20081;-95
2023/06/08 12:01:59;;;;;;;11.98;4.43;;;23.90;99.90;;;;;;4991020;28;20117;-94
2023/06/08 12:04:27;;;;;;;9.20;3.63;;;23.90;99.90;;;;;;5683627;23;20021;31
2023/06/08 12:07:23;;;;;;;;;;;;;;;;;;;;;
2023/06/08 12:12:40;;;;;;;13.27;4.07;;;24.00;99.90;;;;;;5356638;23;20027;-96
2023/06/08 12:15:07;;;;;;;13.38;4.22;;;24.10;99.90;;;;;;5008122;23;20054;-95
2023/06/08 12:17:35;;;;;;;9.55;3.80;;;24.10;99.40;;;;;;4970311;28;20050;-96
2023/06/08 12:20:05;;;;;;;10.90;3.50;;;24.20;99.60;;;;;;5093932;23;20063;-95
2023/06/08 12:22:31;;;;;;;10.27;3.50;;;24.30;99.60;;;;;;4979590;28;20117;-94
2023/06/08 12:24:56;;;;;;;11.60;3.90;;;24.20;99.40;;;;;;4975406;28;20451;-94
2023/06/08 12:27:24;;;;;;;10.55;4.05;;;24.30;99.70;;;;;;4984020;28;20050;-96
2023/06/08 12:29:50;;;;;;;8.68;3.42;;;24.40;99.60;;;;;;4986872;28;20451;-95
2023/06/08 12:32:16;;;;;;;14.68;3.90;;;24.40;99.70;;;;;;4968322;28;20078;-93
2023/06/08 12:34:42;;;;;;;11.63;4.35;;;24.50;99.60;;;;;;4977867;28;20077;-92
2023/06/08 12:37:08;;;;;;;9.88;3.70;;;24.50;99.50;;;;;;4973993;28;20073;-92
2023/06/08 12:39:35;;;;;;;7.20;3.15;;;24.50;99.70;;;;;;4980410;28;20043;-93
2023/06/08 12:42:01;;;;;;;8.70;3.42;;;24.60;99.50;;;;;;4985159;28;20082;-94
2023/06/08 12:44:27;;;;;;;9.05;2.75;;;24.70;99.60;;;;;;4976175;28;20548;-93
2023/06/08 12:46:53;;;;;;;10.95;3.13;;;24.80;99.30;;;;;;4988771;28;20053;-92